Terminal Aerodrome Forecast
Issued by NWS

Home | Current Version | Previous Version | Text Only | Print | Product List | Glossary On
Versions: 1 2 3 4 5 6 7 8 9 10 11 12 13 14 15
000
FTUS43 KMPX 030520
TAFRNH
TAF
KRNH 030520Z 0306/0406 16008KT P6SM OVC090
     FM031100 15007KT 3SM -SN OVC025
     FM031200 14007KT 1 1/2SM -SN OVC015
      TEMPO 0314/0316 3/4SM -SN VV007
     FM031800 31017G22KT 1 1/2SM -SN BKN007 OVC015
     FM032000 31020G29KT 4SM -SN FEW007 OVC020
     FM040000 29016G24KT P6SM FEW025 SCT050=

USA.gov is the U.S. government's official web portal to all federal, state and local government web resources and services.